Terminal Aerodrome Forecast
Issued by NWS

Home | Current Version | Previous Version | Text Only | Print | Product List | Glossary On
Versions: 1 2 3 4 5 6 7 8 9 10 11 12 13 14 15 16
000
FTUS46 KMFR 030544
TAFRBG
TAF
KRBG 030544Z 0306/0406 34004KT P6SM SKC
     FM030900 00000KT P6SM BKN015
     FM031700 35003KT P6SM FEW020
     FM032000 35009KT P6SM FEW040=

USA.gov is the U.S. government's official web portal to all federal, state and local government web resources and services.